All Spectrum Aviation - Van Nuys Airport - KVNY

HOME

Condor Squadron KVNY Webcam

Visit our Electronics Store

Condor Squadron Webcam - Van Nuys Airport - KVNY
Picture taken: Sat, 18 Jan 2020 14:19:13 -0800
YouTube Channel!    Latest Timelapse Movie    Full Size Image    Regular Size Image    

2020/01/18 21:51 KVNY 182151Z 36010KT 10SM CLR 19/M03 A3014 RMK AO2 SLP203 T01941033

HOME

Condor Squadron KVNY Webcam

Visit our Electronics Store